sensor_id;sensor_type;location;lat;lon;timestamp;P1;P2;P0
36453;PMS5003;22478;51.740;-1.314;2023-03-14T00:01:36;41;41;
36453;PMS5003;22478;51.740;-1.314;2023-03-14T00:04:04;43;43;
36453;PMS5003;22478;51.740;-1.314;2023-03-14T00:06:31;48;48;
36453;PMS5003;22478;51.740;-1.314;2023-03-14T00:08:58;41;41;
36453;PMS5003;22478;51.740;-1.314;2023-03-14T00:11:25;45;45;
36453;PMS5003;22478;51.740;-1.314;2023-03-14T00:13:53;41;41;
36453;PMS5003;22478;51.740;-1.314;2023-03-14T00:16:20;38;38;
36453;PMS5003;22478;51.740;-1.314;2023-03-14T00:18:48;43;43;
36453;PMS5003;22478;51.740;-1.314;2023-03-14T00:21:15;41;41;
36453;PMS5003;22478;51.740;-1.314;2023-03-14T00:23:43;45;45;
36453;PMS5003;22478;51.740;-1.314;2023-03-14T00:26:11;40;38;
36453;PMS5003;22478;51.740;-1.314;2023-03-14T00:28:41;36;36;
36453;PMS5003;22478;51.740;-1.314;2023-03-14T00:31:10;31;31;
36453;PMS5003;22478;51.740;-1.314;2023-03-14T00:33:39;34;34;
36453;PMS5003;22478;51.740;-1.314;2023-03-14T00:36:08;36;35;
36453;PMS5003;22478;51.740;-1.314;2023-03-14T00:38:38;27;25;
36453;PMS5003;22478;51.740;-1.314;2023-03-14T00:41:07;26;26;
36453;PMS5003;22478;51.740;-1.314;2023-03-14T00:43:36;32;32;
36453;PMS5003;22478;51.740;-1.314;2023-03-14T00:46:04;34;34;
36453;PMS5003;22478;51.740;-1.314;2023-03-14T00:48:31;25;25;
36453;PMS5003;22478;51.740;-1.314;2023-03-14T00:50:59;24;24;
36453;PMS5003;22478;51.740;-1.314;2023-03-14T00:53:26;16;16;
36453;PMS5003;22478;51.740;-1.314;2023-03-14T00:55:53;18;17;
36453;PMS5003;22478;51.740;-1.314;2023-03-14T00:58:20;21;19;
36453;PMS5003;22478;51.740;-1.314;2023-03-14T01:00:48;19;19;
36453;PMS5003;22478;51.740;-1.314;2023-03-14T01:03:15;15;15;
36453;PMS5003;22478;51.740;-1.314;2023-03-14T01:05:42;12;12;
36453;PMS5003;22478;51.740;-1.314;2023-03-14T01:08:10;14;14;
36453;PMS5003;22478;51.740;-1.314;2023-03-14T01:10:38;14;14;
36453;PMS5003;22478;51.740;-1.314;2023-03-14T01:13:07;10;10;
36453;PMS5003;22478;51.740;-1.314;2023-03-14T01:15:35;12;12;
36453;PMS5003;22478;51.740;-1.314;2023-03-14T01:18:04;12;12;
36453;PMS5003;22478;51.740;-1.314;2023-03-14T01:20:31;7;7;
36453;PMS5003;22478;51.740;-1.314;2023-03-14T01:22:59;8;8;
36453;PMS5003;22478;51.740;-1.314;2023-03-14T01:25:26;16;16;
36453;PMS5003;22478;51.740;-1.314;2023-03-14T01:27:53;20;20;
36453;PMS5003;22478;51.740;-1.314;2023-03-14T01:30:21;16;16;
36453;PMS5003;22478;51.740;-1.314;2023-03-14T01:32:48;24;24;
36453;PMS5003;22478;51.740;-1.314;2023-03-14T01:35:16;14;14;
36453;PMS5003;22478;51.740;-1.314;2023-03-14T01:37:43;15;14;
36453;PMS5003;22478;51.740;-1.314;2023-03-14T01:40:11;7;7;
36453;PMS5003;22478;51.740;-1.314;2023-03-14T01:42:43;13;13;
36453;PMS5003;22478;51.740;-1.314;2023-03-14T01:46:21;12;12;
36453;PMS5003;22478;51.740;-1.314;2023-03-14T01:48:59;10;8;
36453;PMS5003;22478;51.740;-1.314;2023-03-14T01:51:31;6;6;
36453;PMS5003;22478;51.740;-1.314;2023-03-14T01:54:07;7;6;
36453;PMS5003;22478;51.740;-1.314;2023-03-14T01:56:38;7;7;
36453;PMS5003;22478;51.740;-1.314;2023-03-14T01:59:07;8;6;
36453;PMS5003;22478;51.740;-1.314;2023-03-14T02:01:37;12;11;
36453;PMS5003;22478;51.740;-1.314;2023-03-14T02:04:07;12;12;
36453;PMS5003;22478;51.740;-1.314;2023-03-14T02:06:39;7;7;
36453;PMS5003;22478;51.740;-1.314;2023-03-14T02:09:11;8;8;
36453;PMS5003;22478;51.740;-1.314;2023-03-14T02:11:38;6;6;
36453;PMS5003;22478;51.740;-1.314;2023-03-14T02:14:07;10;9;
36453;PMS5003;22478;51.740;-1.314;2023-03-14T02:16:40;11;11;
36453;PMS5003;22478;51.740;-1.314;2023-03-14T02:19:08;7;7;
36453;PMS5003;22478;51.740;-1.314;2023-03-14T02:21:40;8;8;
36453;PMS5003;22478;51.740;-1.314;2023-03-14T02:24:17;5;5;
36453;PMS5003;22478;51.740;-1.314;2023-03-14T02:27:08;9;9;
36453;PMS5003;22478;51.740;-1.314;2023-03-14T02:29:39;21;21;
36453;PMS5003;22478;51.740;-1.314;2023-03-14T02:32:12;11;11;
36453;PMS5003;22478;51.740;-1.314;2023-03-14T02:34:41;8;8;
36453;PMS5003;22478;51.740;-1.314;2023-03-14T02:37:11;11;11;
36453;PMS5003;22478;51.740;-1.314;2023-03-14T02:39:40;7;7;
36453;PMS5003;22478;51.740;-1.314;2023-03-14T02:42:10;5;5;
36453;PMS5003;22478;51.740;-1.314;2023-03-14T02:44:47;5;5;
36453;PMS5003;22478;51.740;-1.314;2023-03-14T02:47:16;4;4;
36453;PMS5003;22478;51.740;-1.314;2023-03-14T02:49:50;3;3;
36453;PMS5003;22478;51.740;-1.314;2023-03-14T02:52:21;6;6;
36453;PMS5003;22478;51.740;-1.314;2023-03-14T02:54:48;7;6;
36453;PMS5003;22478;51.740;-1.314;2023-03-14T02:57:15;6;6;
36453;PMS5003;22478;51.740;-1.314;2023-03-14T02:59:42;4;4;
36453;PMS5003;22478;51.740;-1.314;2023-03-14T03:02:10;6;5;
36453;PMS5003;22478;51.740;-1.314;2023-03-14T03:04:37;6;5;
36453;PMS5003;22478;51.740;-1.314;2023-03-14T03:07:04;9;8;
36453;PMS5003;22478;51.740;-1.314;2023-03-14T03:09:31;9;7;
36453;PMS5003;22478;51.740;-1.314;2023-03-14T03:11:58;6;6;
36453;PMS5003;22478;51.740;-1.314;2023-03-14T03:14:26;6;6;
36453;PMS5003;22478;51.740;-1.314;2023-03-14T03:16:53;4;4;
36453;PMS5003;22478;51.740;-1.314;2023-03-14T03:19:21;8;7;
36453;PMS5003;22478;51.740;-1.314;2023-03-14T03:21:48;13;12;
36453;PMS5003;22478;51.740;-1.314;2023-03-14T03:24:16;6;4;
36453;PMS5003;22478;51.740;-1.314;2023-03-14T03:26:43;6;6;
36453;PMS5003;22478;51.740;-1.314;2023-03-14T03:29:11;11;5;
36453;PMS5003;22478;51.740;-1.314;2023-03-14T03:31:38;7;5;
36453;PMS5003;22478;51.740;-1.314;2023-03-14T03:34:05;8;8;
36453;PMS5003;22478;51.740;-1.314;2023-03-14T03:36:33;6;6;
36453;PMS5003;22478;51.740;-1.314;2023-03-14T03:39:00;5;5;
36453;PMS5003;22478;51.740;-1.314;2023-03-14T03:41:27;8;5;
36453;PMS5003;22478;51.740;-1.314;2023-03-14T03:43:54;7;6;
36453;PMS5003;22478;51.740;-1.314;2023-03-14T03:46:22;8;7;
36453;PMS5003;22478;51.740;-1.314;2023-03-14T03:48:53;6;6;
36453;PMS5003;22478;51.740;-1.314;2023-03-14T03:51:21;5;5;
36453;PMS5003;22478;51.740;-1.314;2023-03-14T03:53:48;5;4;
36453;PMS5003;22478;51.740;-1.314;2023-03-14T03:56:15;8;7;
36453;PMS5003;22478;51.740;-1.314;2023-03-14T03:58:43;14;12;
36453;PMS5003;22478;51.740;-1.314;2023-03-14T04:01:10;12;11;
36453;PMS5003;22478;51.740;-1.314;2023-03-14T04:03:37;11;9;
36453;PMS5003;22478;51.740;-1.314;2023-03-14T04:06:06;8;8;
36453;PMS5003;22478;51.740;-1.314;2023-03-14T04:08:36;8;8;
36453;PMS5003;22478;51.740;-1.314;2023-03-14T04:11:04;7;6;
36453;PMS5003;22478;51.740;-1.314;2023-03-14T04:13:32;14;9;
36453;PMS5003;22478;51.740;-1.314;2023-03-14T04:15:59;11;9;
36453;PMS5003;22478;51.740;-1.314;2023-03-14T04:18:26;8;8;
36453;PMS5003;22478;51.740;-1.314;2023-03-14T04:20:54;8;8;
36453;PMS5003;22478;51.740;-1.314;2023-03-14T04:23:23;8;8;
36453;PMS5003;22478;51.740;-1.314;2023-03-14T04:25:50;12;8;
36453;PMS5003;22478;51.740;-1.314;2023-03-14T04:28:18;5;5;
36453;PMS5003;22478;51.740;-1.314;2023-03-14T04:30:45;11;8;
36453;PMS5003;22478;51.740;-1.314;2023-03-14T04:33:12;4;4;
36453;PMS5003;22478;51.740;-1.314;2023-03-14T04:35:39;4;3;
36453;PMS5003;22478;51.740;-1.314;2023-03-14T04:38:07;3;3;
36453;PMS5003;22478;51.740;-1.314;2023-03-14T04:40:36;3;3;
36453;PMS5003;22478;51.740;-1.314;2023-03-14T04:43:03;4;4;
36453;PMS5003;22478;51.740;-1.314;2023-03-14T04:45:30;5;5;
36453;PMS5003;22478;51.740;-1.314;2023-03-14T04:47:57;5;5;
36453;PMS5003;22478;51.740;-1.314;2023-03-14T04:50:24;7;6;
36453;PMS5003;22478;51.740;-1.314;2023-03-14T04:52:51;4;4;
36453;PMS5003;22478;51.740;-1.314;2023-03-14T04:55:19;6;6;
36453;PMS5003;22478;51.740;-1.314;2023-03-14T04:57:46;7;7;
36453;PMS5003;22478;51.740;-1.314;2023-03-14T05:00:13;6;6;
36453;PMS5003;22478;51.740;-1.314;2023-03-14T05:02:40;8;8;
36453;PMS5003;22478;51.740;-1.314;2023-03-14T05:05:08;6;6;
36453;PMS5003;22478;51.740;-1.314;2023-03-14T05:07:35;6;6;
36453;PMS5003;22478;51.740;-1.314;2023-03-14T05:10:03;8;7;
36453;PMS5003;22478;51.740;-1.314;2023-03-14T05:12:31;5;2;
36453;PMS5003;22478;51.740;-1.314;2023-03-14T05:14:58;10;4;
36453;PMS5003;22478;51.740;-1.314;2023-03-14T05:17:25;6;4;
36453;PMS5003;22478;51.740;-1.314;2023-03-14T05:19:53;7;7;
36453;PMS5003;22478;51.740;-1.314;2023-03-14T05:22:20;7;7;
36453;PMS5003;22478;51.740;-1.314;2023-03-14T05:24:47;6;4;
36453;PMS5003;22478;51.740;-1.314;2023-03-14T05:27:14;5;5;
36453;PMS5003;22478;51.740;-1.314;2023-03-14T05:29:41;5;5;
36453;PMS5003;22478;51.740;-1.314;2023-03-14T05:32:09;6;4;
36453;PMS5003;22478;51.740;-1.314;2023-03-14T05:34:37;8;5;
36453;PMS5003;22478;51.740;-1.314;2023-03-14T05:37:04;5;5;
36453;PMS5003;22478;51.740;-1.314;2023-03-14T05:39:31;5;5;
36453;PMS5003;22478;51.740;-1.314;2023-03-14T05:41:59;7;6;
36453;PMS5003;22478;51.740;-1.314;2023-03-14T05:44:26;7;7;
36453;PMS5003;22478;51.740;-1.314;2023-03-14T05:46:53;7;5;
36453;PMS5003;22478;51.740;-1.314;2023-03-14T05:49:21;7;7;
36453;PMS5003;22478;51.740;-1.314;2023-03-14T05:51:48;7;6;
36453;PMS5003;22478;51.740;-1.314;2023-03-14T05:54:15;9;9;
36453;PMS5003;22478;51.740;-1.314;2023-03-14T05:56:42;8;7;
36453;PMS5003;22478;51.740;-1.314;2023-03-14T05:59:10;10;10;
36453;PMS5003;22478;51.740;-1.314;2023-03-14T06:01:37;7;6;
36453;PMS5003;22478;51.740;-1.314;2023-03-14T06:04:05;13;9;
36453;PMS5003;22478;51.740;-1.314;2023-03-14T06:06:32;7;6;
36453;PMS5003;22478;51.740;-1.314;2023-03-14T06:08:59;15;12;
36453;PMS5003;22478;51.740;-1.314;2023-03-14T06:11:26;6;6;
36453;PMS5003;22478;51.740;-1.314;2023-03-14T06:13:53;11;11;
36453;PMS5003;22478;51.740;-1.314;2023-03-14T06:16:21;7;7;
36453;PMS5003;22478;51.740;-1.314;2023-03-14T06:18:48;7;5;
36453;PMS5003;22478;51.740;-1.314;2023-03-14T06:21:15;7;4;
36453;PMS5003;22478;51.740;-1.314;2023-03-14T06:23:42;7;7;
36453;PMS5003;22478;51.740;-1.314;2023-03-14T06:26:10;6;6;
36453;PMS5003;22478;51.740;-1.314;2023-03-14T06:28:37;6;6;
36453;PMS5003;22478;51.740;-1.314;2023-03-14T06:31:05;9;7;
36453;PMS5003;22478;51.740;-1.314;2023-03-14T06:33:33;4;4;
36453;PMS5003;22478;51.740;-1.314;2023-03-14T06:36:00;6;6;
36453;PMS5003;22478;51.740;-1.314;2023-03-14T06:38:27;4;4;
36453;PMS5003;22478;51.740;-1.314;2023-03-14T06:40:54;3;3;
36453;PMS5003;22478;51.740;-1.314;2023-03-14T06:43:22;5;4;
36453;PMS5003;22478;51.740;-1.314;2023-03-14T06:45:49;5;4;
36453;PMS5003;22478;51.740;-1.314;2023-03-14T06:48:16;5;5;
36453;PMS5003;22478;51.740;-1.314;2023-03-14T06:50:44;7;7;
36453;PMS5003;22478;51.740;-1.314;2023-03-14T06:53:11;6;4;
36453;PMS5003;22478;51.740;-1.314;2023-03-14T06:55:38;4;4;
36453;PMS5003;22478;51.740;-1.314;2023-03-14T06:58:05;5;5;
36453;PMS5003;22478;51.740;-1.314;2023-03-14T07:00:32;5;5;
36453;PMS5003;22478;51.740;-1.314;2023-03-14T07:02:59;7;7;
36453;PMS5003;22478;51.740;-1.314;2023-03-14T07:05:26;8;8;
36453;PMS5003;22478;51.740;-1.314;2023-03-14T07:07:54;10;7;
36453;PMS5003;22478;51.740;-1.314;2023-03-14T07:10:22;6;6;
36453;PMS5003;22478;51.740;-1.314;2023-03-14T07:12:49;4;3;
36453;PMS5003;22478;51.740;-1.314;2023-03-14T07:15:17;4;4;
36453;PMS5003;22478;51.740;-1.314;2023-03-14T07:17:44;7;5;
36453;PMS5003;22478;51.740;-1.314;2023-03-14T07:20:12;12;12;
36453;PMS5003;22478;51.740;-1.314;2023-03-14T07:22:39;12;8;
36453;PMS5003;22478;51.740;-1.314;2023-03-14T07:25:07;5;5;
36453;PMS5003;22478;51.740;-1.314;2023-03-14T07:27:35;3;3;
36453;PMS5003;22478;51.740;-1.314;2023-03-14T07:30:03;9;8;
36453;PMS5003;22478;51.740;-1.314;2023-03-14T07:32:32;21;21;
36453;PMS5003;22478;51.740;-1.314;2023-03-14T07:34:59;13;13;
36453;PMS5003;22478;51.740;-1.314;2023-03-14T07:37:26;13;13;
36453;PMS5003;22478;51.740;-1.314;2023-03-14T07:39:53;8;7;
36453;PMS5003;22478;51.740;-1.314;2023-03-14T07:42:21;8;8;
36453;PMS5003;22478;51.740;-1.314;2023-03-14T07:44:48;18;14;
36453;PMS5003;22478;51.740;-1.314;2023-03-14T07:47:16;8;8;
36453;PMS5003;22478;51.740;-1.314;2023-03-14T07:49:42;6;6;
36453;PMS5003;22478;51.740;-1.314;2023-03-14T07:52:10;4;2;
36453;PMS5003;22478;51.740;-1.314;2023-03-14T07:54:37;3;3;
36453;PMS5003;22478;51.740;-1.314;2023-03-14T07:57:04;4;4;
36453;PMS5003;22478;51.740;-1.314;2023-03-14T07:59:31;12;10;
36453;PMS5003;22478;51.740;-1.314;2023-03-14T08:01:58;11;11;
36453;PMS5003;22478;51.740;-1.314;2023-03-14T08:04:25;4;4;
36453;PMS5003;22478;51.740;-1.314;2023-03-14T08:06:52;3;3;
36453;PMS5003;22478;51.740;-1.314;2023-03-14T08:09:20;7;7;
36453;PMS5003;22478;51.740;-1.314;2023-03-14T08:11:46;2;2;
36453;PMS5003;22478;51.740;-1.314;2023-03-14T08:14:14;2;2;
36453;PMS5003;22478;51.740;-1.314;2023-03-14T08:16:41;4;4;
36453;PMS5003;22478;51.740;-1.314;2023-03-14T08:19:08;1;1;
36453;PMS5003;22478;51.740;-1.314;2023-03-14T08:21:35;3;2;
36453;PMS5003;22478;51.740;-1.314;2023-03-14T08:24:03;2;2;
36453;PMS5003;22478;51.740;-1.314;2023-03-14T08:26:30;5;5;
36453;PMS5003;22478;51.740;-1.314;2023-03-14T08:28:57;5;5;
36453;PMS5003;22478;51.740;-1.314;2023-03-14T08:31:24;13;8;
36453;PMS5003;22478;51.740;-1.314;2023-03-14T08:33:51;6;5;
36453;PMS5003;22478;51.740;-1.314;2023-03-14T08:36:19;6;6;
36453;PMS5003;22478;51.740;-1.314;2023-03-14T08:38:46;5;5;
36453;PMS5003;22478;51.740;-1.314;2023-03-14T08:41:13;5;5;
36453;PMS5003;22478;51.740;-1.314;2023-03-14T08:43:40;6;6;
36453;PMS5003;22478;51.740;-1.314;2023-03-14T08:46:08;8;6;
36453;PMS5003;22478;51.740;-1.314;2023-03-14T08:48:35;5;5;
36453;PMS5003;22478;51.740;-1.314;2023-03-14T08:51:06;6;6;
36453;PMS5003;22478;51.740;-1.314;2023-03-14T08:53:34;7;7;
36453;PMS5003;22478;51.740;-1.314;2023-03-14T08:56:01;7;6;
36453;PMS5003;22478;51.740;-1.314;2023-03-14T08:58:28;7;5;
36453;PMS5003;22478;51.740;-1.314;2023-03-14T09:00:56;4;4;
36453;PMS5003;22478;51.740;-1.314;2023-03-14T09:03:23;5;5;
36453;PMS5003;22478;51.740;-1.314;2023-03-14T09:05:50;8;7;
36453;PMS5003;22478;51.740;-1.314;2023-03-14T09:08:18;6;5;
36453;PMS5003;22478;51.740;-1.314;2023-03-14T09:10:45;8;6;
36453;PMS5003;22478;51.740;-1.314;2023-03-14T09:13:13;8;8;
36453;PMS5003;22478;51.740;-1.314;2023-03-14T09:15:40;8;8;
36453;PMS5003;22478;51.740;-1.314;2023-03-14T09:18:07;2;2;
36453;PMS5003;22478;51.740;-1.314;2023-03-14T09:20:35;14;13;
36453;PMS5003;22478;51.740;-1.314;2023-03-14T09:23:02;9;9;
36453;PMS5003;22478;51.740;-1.314;2023-03-14T09:25:29;10;10;
36453;PMS5003;22478;51.740;-1.314;2023-03-14T09:27:56;6;6;
36453;PMS5003;22478;51.740;-1.314;2023-03-14T09:30:23;2;2;
36453;PMS5003;22478;51.740;-1.314;2023-03-14T09:32:50;8;6;
36453;PMS5003;22478;51.740;-1.314;2023-03-14T09:35:18;8;8;
36453;PMS5003;22478;51.740;-1.314;2023-03-14T09:37:45;15;15;
36453;PMS5003;22478;51.740;-1.314;2023-03-14T09:40:13;10;10;
36453;PMS5003;22478;51.740;-1.314;2023-03-14T09:42:42;9;9;
36453;PMS5003;22478;51.740;-1.314;2023-03-14T09:45:11;6;6;
36453;PMS5003;22478;51.740;-1.314;2023-03-14T09:47:43;6;6;
36453;PMS5003;22478;51.740;-1.314;2023-03-14T09:50:13;8;6;
36453;PMS5003;22478;51.740;-1.314;2023-03-14T09:52:41;9;8;
36453;PMS5003;22478;51.740;-1.314;2023-03-14T09:55:13;6;6;
36453;PMS5003;22478;51.740;-1.314;2023-03-14T09:57:43;5;5;
36453;PMS5003;22478;51.740;-1.314;2023-03-14T10:00:14;5;5;
36453;PMS5003;22478;51.740;-1.314;2023-03-14T10:02:46;9;7;
36453;PMS5003;22478;51.740;-1.314;2023-03-14T10:05:18;10;10;
36453;PMS5003;22478;51.740;-1.314;2023-03-14T10:07:47;7;6;
36453;PMS5003;22478;51.740;-1.314;2023-03-14T10:10:15;2;2;
36453;PMS5003;22478;51.740;-1.314;2023-03-14T10:12:45;8;6;
36453;PMS5003;22478;51.740;-1.314;2023-03-14T10:15:14;5;3;
36453;PMS5003;22478;51.740;-1.314;2023-03-14T10:17:49;4;4;
36453;PMS5003;22478;51.740;-1.314;2023-03-14T10:20:33;1;1;
36453;PMS5003;22478;51.740;-1.314;2023-03-14T10:23:01;7;7;
36453;PMS5003;22478;51.740;-1.314;2023-03-14T10:25:31;5;5;
36453;PMS5003;22478;51.740;-1.314;2023-03-14T10:27:59;12;12;
36453;PMS5003;22478;51.740;-1.314;2023-03-14T10:30:32;4;4;
36453;PMS5003;22478;51.740;-1.314;2023-03-14T10:33:09;4;4;
36453;PMS5003;22478;51.740;-1.314;2023-03-14T10:35:37;9;9;
36453;PMS5003;22478;51.740;-1.314;2023-03-14T10:38:05;6;6;
36453;PMS5003;22478;51.740;-1.314;2023-03-14T10:40:41;10;9;
36453;PMS5003;22478;51.740;-1.314;2023-03-14T10:43:15;4;4;
36453;PMS5003;22478;51.740;-1.314;2023-03-14T10:45:47;5;5;
36453;PMS5003;22478;51.740;-1.314;2023-03-14T10:48:21;7;7;
36453;PMS5003;22478;51.740;-1.314;2023-03-14T10:50:50;4;4;
36453;PMS5003;22478;51.740;-1.314;2023-03-14T10:53:22;6;3;
36453;PMS5003;22478;51.740;-1.314;2023-03-14T10:55:50;3;2;
36453;PMS5003;22478;51.740;-1.314;2023-03-14T10:58:19;2;2;
36453;PMS5003;22478;51.740;-1.314;2023-03-14T11:00:50;4;4;
36453;PMS5003;22478;51.740;-1.314;2023-03-14T11:03:24;15;13;
36453;PMS5003;22478;51.740;-1.314;2023-03-14T11:05:56;9;8;
36453;PMS5003;22478;51.740;-1.314;2023-03-14T11:08:27;20;18;
36453;PMS5003;22478;51.740;-1.314;2023-03-14T11:11:04;7;7;
36453;PMS5003;22478;51.740;-1.314;2023-03-14T11:13:42;10;10;
36453;PMS5003;22478;51.740;-1.314;2023-03-14T11:16:20;11;11;
36453;PMS5003;22478;51.740;-1.314;2023-03-14T11:19:01;11;11;
36453;PMS5003;22478;51.740;-1.314;2023-03-14T11:21:37;14;14;
36453;PMS5003;22478;51.740;-1.314;2023-03-14T11:24:20;11;10;
36453;PMS5003;22478;51.740;-1.314;2023-03-14T11:27:02;6;6;
36453;PMS5003;22478;51.740;-1.314;2023-03-14T11:29:36;7;6;
36453;PMS5003;22478;51.740;-1.314;2023-03-14T11:32:11;15;15;
36453;PMS5003;22478;51.740;-1.314;2023-03-14T11:34:41;12;9;
36453;PMS5003;22478;51.740;-1.314;2023-03-14T11:37:14;11;10;
36453;PMS5003;22478;51.740;-1.314;2023-03-14T11:39:49;12;12;
36453;PMS5003;22478;51.740;-1.314;2023-03-14T11:42:22;6;5;
36453;PMS5003;22478;51.740;-1.314;2023-03-14T11:44:53;4;1;
36453;PMS5003;22478;51.740;-1.314;2023-03-14T11:47:23;3;3;
36453;PMS5003;22478;51.740;-1.314;2023-03-14T11:49:56;16;14;
36453;PMS5003;22478;51.740;-1.314;2023-03-14T11:52:27;2;2;
36453;PMS5003;22478;51.740;-1.314;2023-03-14T11:55:00;1;1;
36453;PMS5003;22478;51.740;-1.314;2023-03-14T11:57:34;2;2;
36453;PMS5003;22478;51.740;-1.314;2023-03-14T12:00:02;2;2;
36453;PMS5003;22478;51.740;-1.314;2023-03-14T12:02:41;4;2;
36453;PMS5003;22478;51.740;-1.314;2023-03-14T12:05:22;5;4;
36453;PMS5003;22478;51.740;-1.314;2023-03-14T12:08:10;1;1;
36453;PMS5003;22478;51.740;-1.314;2023-03-14T12:10:49;3;3;
36453;PMS5003;22478;51.740;-1.314;2023-03-14T12:13:19;6;4;
36453;PMS5003;22478;51.740;-1.314;2023-03-14T12:15:49;6;4;
36453;PMS5003;22478;51.740;-1.314;2023-03-14T12:18:20;3;3;
36453;PMS5003;22478;51.740;-1.314;2023-03-14T12:20:54;1;1;
36453;PMS5003;22478;51.740;-1.314;2023-03-14T12:23:24;2;0;
36453;PMS5003;22478;51.740;-1.314;2023-03-14T12:26:26;2;2;
36453;PMS5003;22478;51.740;-1.314;2023-03-14T12:29:11;5;4;
36453;PMS5003;22478;51.740;-1.314;2023-03-14T12:31:42;4;4;
36453;PMS5003;22478;51.740;-1.314;2023-03-14T12:34:28;3;2;
36453;PMS5003;22478;51.740;-1.314;2023-03-14T12:36:59;2;2;
36453;PMS5003;22478;51.740;-1.314;2023-03-14T12:39:37;3;1;
36453;PMS5003;22478;51.740;-1.314;2023-03-14T12:42:12;2;2;
36453;PMS5003;22478;51.740;-1.314;2023-03-14T12:44:44;5;5;
36453;PMS5003;22478;51.740;-1.314;2023-03-14T12:48:02;15;14;
36453;PMS5003;22478;51.740;-1.314;2023-03-14T12:50:36;5;3;
36453;PMS5003;22478;51.740;-1.314;2023-03-14T12:54:16;3;3;
36453;PMS5003;22478;51.740;-1.314;2023-03-14T12:57:05;1;1;
36453;PMS5003;22478;51.740;-1.314;2023-03-14T12:59:38;3;3;
36453;PMS5003;22478;51.740;-1.314;2023-03-14T13:02:16;6;3;
36453;PMS5003;22478;51.740;-1.314;2023-03-14T13:04:48;4;4;
36453;PMS5003;22478;51.740;-1.314;2023-03-14T13:07:35;4;4;
36453;PMS5003;22478;51.740;-1.314;2023-03-14T13:10:28;3;3;
36453;PMS5003;22478;51.740;-1.314;2023-03-14T13:13:02;5;5;
36453;PMS5003;22478;51.740;-1.314;2023-03-14T13:15:38;7;6;
36453;PMS5003;22478;51.740;-1.314;2023-03-14T13:18:09;5;4;
36453;PMS5003;22478;51.740;-1.314;2023-03-14T13:20:41;9;5;
36453;PMS5003;22478;51.740;-1.314;2023-03-14T13:23:21;4;4;
36453;PMS5003;22478;51.740;-1.314;2023-03-14T13:25:50;5;5;
36453;PMS5003;22478;51.740;-1.314;2023-03-14T13:28:18;3;3;
36453;PMS5003;22478;51.740;-1.314;2023-03-14T13:30:46;4;4;
36453;PMS5003;22478;51.740;-1.314;2023-03-14T13:33:16;5;4;
36453;PMS5003;22478;51.740;-1.314;2023-03-14T13:35:45;5;4;
36453;PMS5003;22478;51.740;-1.314;2023-03-14T13:38:15;4;4;
36453;PMS5003;22478;51.740;-1.314;2023-03-14T13:40:45;4;3;
36453;PMS5003;22478;51.740;-1.314;2023-03-14T13:43:16;2;2;
36453;PMS5003;22478;51.740;-1.314;2023-03-14T13:45:47;4;4;
36453;PMS5003;22478;51.740;-1.314;2023-03-14T13:48:18;2;2;
36453;PMS5003;22478;51.740;-1.314;2023-03-14T13:50:50;3;3;
36453;PMS5003;22478;51.740;-1.314;2023-03-14T13:53:19;3;3;
36453;PMS5003;22478;51.740;-1.314;2023-03-14T13:55:47;3;3;
36453;PMS5003;22478;51.740;-1.314;2023-03-14T13:58:20;2;2;
36453;PMS5003;22478;51.740;-1.314;2023-03-14T14:01:06;2;2;
36453;PMS5003;22478;51.740;-1.314;2023-03-14T14:03:40;1;1;
36453;PMS5003;22478;51.740;-1.314;2023-03-14T14:06:19;8;6;
36453;PMS5003;22478;51.740;-1.314;2023-03-14T14:08:53;4;4;
36453;PMS5003;22478;51.740;-1.314;2023-03-14T14:11:31;5;3;
36453;PMS5003;22478;51.740;-1.314;2023-03-14T14:14:05;2;2;
36453;PMS5003;22478;51.740;-1.314;2023-03-14T14:16:38;5;3;
36453;PMS5003;22478;51.740;-1.314;2023-03-14T14:19:06;4;4;
36453;PMS5003;22478;51.740;-1.314;2023-03-14T14:21:34;3;3;
36453;PMS5003;22478;51.740;-1.314;2023-03-14T14:24:01;6;5;
36453;PMS5003;22478;51.740;-1.314;2023-03-14T14:26:29;2;2;
36453;PMS5003;22478;51.740;-1.314;2023-03-14T14:29:00;3;3;
36453;PMS5003;22478;51.740;-1.314;2023-03-14T14:31:29;4;4;
36453;PMS5003;22478;51.740;-1.314;2023-03-14T14:33:57;2;2;
36453;PMS5003;22478;51.740;-1.314;2023-03-14T14:36:27;3;2;
36453;PMS5003;22478;51.740;-1.314;2023-03-14T14:38:58;3;2;
36453;PMS5003;22478;51.740;-1.314;2023-03-14T14:41:28;3;3;
36453;PMS5003;22478;51.740;-1.314;2023-03-14T14:43:57;4;4;
36453;PMS5003;22478;51.740;-1.314;2023-03-14T14:46:26;1;1;
36453;PMS5003;22478;51.740;-1.314;2023-03-14T14:48:56;3;3;
36453;PMS5003;22478;51.740;-1.314;2023-03-14T14:51:31;4;4;
36453;PMS5003;22478;51.740;-1.314;2023-03-14T14:54:02;6;4;
36453;PMS5003;22478;51.740;-1.314;2023-03-14T14:56:36;2;2;
36453;PMS5003;22478;51.740;-1.314;2023-03-14T14:59:04;3;3;
36453;PMS5003;22478;51.740;-1.314;2023-03-14T15:01:35;2;2;
36453;PMS5003;22478;51.740;-1.314;2023-03-14T15:04:04;4;2;
36453;PMS5003;22478;51.740;-1.314;2023-03-14T15:06:37;4;3;
36453;PMS5003;22478;51.740;-1.314;2023-03-14T15:09:05;3;2;
36453;PMS5003;22478;51.740;-1.314;2023-03-14T15:11:32;2;2;
36453;PMS5003;22478;51.740;-1.314;2023-03-14T15:13:59;3;3;
36453;PMS5003;22478;51.740;-1.314;2023-03-14T15:16:28;2;2;
36453;PMS5003;22478;51.740;-1.314;2023-03-14T15:18:58;1;1;
36453;PMS5003;22478;51.740;-1.314;2023-03-14T15:21:27;1;1;
36453;PMS5003;22478;51.740;-1.314;2023-03-14T15:23:54;3;2;
36453;PMS5003;22478;51.740;-1.314;2023-03-14T15:26:22;4;1;
36453;PMS5003;22478;51.740;-1.314;2023-03-14T15:28:52;4;2;
36453;PMS5003;22478;51.740;-1.314;2023-03-14T15:31:19;4;2;
36453;PMS5003;22478;51.740;-1.314;2023-03-14T15:33:47;2;2;
36453;PMS5003;22478;51.740;-1.314;2023-03-14T15:36:19;2;2;
36453;PMS5003;22478;51.740;-1.314;2023-03-14T15:38:49;1;1;
36453;PMS5003;22478;51.740;-1.314;2023-03-14T15:41:17;4;3;
36453;PMS5003;22478;51.740;-1.314;2023-03-14T15:43:45;4;4;
36453;PMS5003;22478;51.740;-1.314;2023-03-14T15:46:14;2;2;
36453;PMS5003;22478;51.740;-1.314;2023-03-14T15:48:41;4;3;
36453;PMS5003;22478;51.740;-1.314;2023-03-14T15:51:08;4;2;
36453;PMS5003;22478;51.740;-1.314;2023-03-14T15:53:35;5;3;
36453;PMS5003;22478;51.740;-1.314;2023-03-14T15:56:04;3;3;
36453;PMS5003;22478;51.740;-1.314;2023-03-14T15:58:32;3;1;
36453;PMS5003;22478;51.740;-1.314;2023-03-14T16:01:00;2;2;
36453;PMS5003;22478;51.740;-1.314;2023-03-14T16:03:28;4;3;
36453;PMS5003;22478;51.740;-1.314;2023-03-14T16:05:55;2;1;
36453;PMS5003;22478;51.740;-1.314;2023-03-14T16:08:23;3;3;
36453;PMS5003;22478;51.740;-1.314;2023-03-14T16:10:51;3;1;
36453;PMS5003;22478;51.740;-1.314;2023-03-14T16:13:19;5;4;
36453;PMS5003;22478;51.740;-1.314;2023-03-14T16:15:54;4;3;
36453;PMS5003;22478;51.740;-1.314;2023-03-14T16:18:22;1;1;
36453;PMS5003;22478;51.740;-1.314;2023-03-14T16:20:51;4;3;
36453;PMS5003;22478;51.740;-1.314;2023-03-14T16:23:19;3;2;
36453;PMS5003;22478;51.740;-1.314;2023-03-14T16:25:46;2;2;
36453;PMS5003;22478;51.740;-1.314;2023-03-14T16:28:13;5;4;
36453;PMS5003;22478;51.740;-1.314;2023-03-14T16:30:41;2;2;
36453;PMS5003;22478;51.740;-1.314;2023-03-14T16:33:08;2;2;
36453;PMS5003;22478;51.740;-1.314;2023-03-14T16:35:36;2;2;
36453;PMS5003;22478;51.740;-1.314;2023-03-14T16:38:03;3;2;
36453;PMS5003;22478;51.740;-1.314;2023-03-14T16:40:30;4;4;
36453;PMS5003;22478;51.740;-1.314;2023-03-14T16:42:58;3;2;
36453;PMS5003;22478;51.740;-1.314;2023-03-14T16:45:25;1;1;